Terminal Aerodrome Forecast
Issued by NWS

Home | Current Version | Previous Version | Text Only | Print | Product List | Glossary On
Versions: 1 2 3 4 5 6 7 8 9 10 11 12 13 14 15 16 17 18 19 20 21 22 23 24 25 26 27 28
000
FTPA31 PHFO 280300 AAB
TAFOGG
TAF AMD
PHOG 280304Z 2803/2824 35015KT P6SM FEW050
     FM280500 02008KT P6SM FEW040
     FM282000 03015KT P6SM FEW050
      AMD LTD TO WX VIS AND WIND 2809/2816=

USA.gov is the U.S. government's official web portal to all federal, state and local government web resources and services.